sensor_id;sensor_type;location;lat;lon;timestamp;temperature;humidity
26479;DHT22;14163;-26.142;27.992;2023-07-29T00:01:10;18.50;87.80
26479;DHT22;14163;-26.142;27.992;2023-07-29T00:03:41;18.50;87.30
26479;DHT22;14163;-26.142;27.992;2023-07-29T00:06:10;18.40;87.40
26479;DHT22;14163;-26.142;27.992;2023-07-29T00:08:40;18.30;87.40
26479;DHT22;14163;-26.142;27.992;2023-07-29T00:11:09;18.30;87.80
26479;DHT22;14163;-26.142;27.992;2023-07-29T00:13:38;18.30;87.70
26479;DHT22;14163;-26.142;27.992;2023-07-29T00:16:08;18.30;88.20
26479;DHT22;14163;-26.142;27.992;2023-07-29T00:18:37;18.30;88.20
26479;DHT22;14163;-26.142;27.992;2023-07-29T00:21:08;18.30;88.00
26479;DHT22;14163;-26.142;27.992;2023-07-29T00:23:37;18.30;88.10
26479;DHT22;14163;-26.142;27.992;2023-07-29T00:26:06;18.20;88.70
26479;DHT22;14163;-26.142;27.992;2023-07-29T00:28:35;18.20;89.30
26479;DHT22;14163;-26.142;27.992;2023-07-29T00:31:05;18.10;89.50
26479;DHT22;14163;-26.142;27.992;2023-07-29T00:33:34;18.10;89.70
26479;DHT22;14163;-26.142;27.992;2023-07-29T00:36:04;18.20;90.00
26479;DHT22;14163;-26.142;27.992;2023-07-29T00:38:35;18.20;90.10
26479;DHT22;14163;-26.142;27.992;2023-07-29T00:41:04;18.20;90.00
26479;DHT22;14163;-26.142;27.992;2023-07-29T00:43:33;18.10;90.10
26479;DHT22;14163;-26.142;27.992;2023-07-29T00:46:02;18.10;90.20
26479;DHT22;14163;-26.142;27.992;2023-07-29T00:48:32;18.10;90.30
26479;DHT22;14163;-26.142;27.992;2023-07-29T00:51:01;18.10;90.30
26479;DHT22;14163;-26.142;27.992;2023-07-29T00:53:31;18.00;90.40
26479;DHT22;14163;-26.142;27.992;2023-07-29T00:56:02;18.00;90.60
26479;DHT22;14163;-26.142;27.992;2023-07-29T00:58:31;18.00;90.70
26479;DHT22;14163;-26.142;27.992;2023-07-29T01:01:00;18.00;90.80
26479;DHT22;14163;-26.142;27.992;2023-07-29T01:03:29;18.00;90.80
26479;DHT22;14163;-26.142;27.992;2023-07-29T01:06:08;18.00;90.90
26479;DHT22;14163;-26.142;27.992;2023-07-29T01:08:45;18.00;91.10
26479;DHT22;14163;-26.142;27.992;2023-07-29T01:11:27;17.90;91.00
26479;DHT22;14163;-26.142;27.992;2023-07-29T01:14:01;17.90;91.10
26479;DHT22;14163;-26.142;27.992;2023-07-29T01:16:38;17.80;91.20
26479;DHT22;14163;-26.142;27.992;2023-07-29T01:19:14;17.80;91.30
26479;DHT22;14163;-26.142;27.992;2023-07-29T01:21:45;17.80;91.30
26479;DHT22;14163;-26.142;27.992;2023-07-29T01:24:16;17.80;91.40
26479;DHT22;14163;-26.142;27.992;2023-07-29T01:26:45;17.80;91.50
26479;DHT22;14163;-26.142;27.992;2023-07-29T01:29:16;17.70;91.50
26479;DHT22;14163;-26.142;27.992;2023-07-29T01:31:45;17.70;91.50
26479;DHT22;14163;-26.142;27.992;2023-07-29T01:34:24;17.60;91.40
26479;DHT22;14163;-26.142;27.992;2023-07-29T01:36:58;17.60;91.50
26479;DHT22;14163;-26.142;27.992;2023-07-29T01:39:33;17.60;91.50
26479;DHT22;14163;-26.142;27.992;2023-07-29T01:42:06;17.60;91.80
26479;DHT22;14163;-26.142;27.992;2023-07-29T01:44:36;17.70;91.70
26479;DHT22;14163;-26.142;27.992;2023-07-29T01:47:06;17.70;91.80
26479;DHT22;14163;-26.142;27.992;2023-07-29T01:49:36;17.70;91.80
26479;DHT22;14163;-26.142;27.992;2023-07-29T01:52:05;17.60;92.00
26479;DHT22;14163;-26.142;27.992;2023-07-29T01:54:36;17.60;92.10
26479;DHT22;14163;-26.142;27.992;2023-07-29T01:57:05;17.50;92.30
26479;DHT22;14163;-26.142;27.992;2023-07-29T01:59:35;17.50;92.40
26479;DHT22;14163;-26.142;27.992;2023-07-29T04:04:42;12.40;99.90
26479;DHT22;14163;-26.142;27.992;2023-07-29T04:07:14;12.50;99.90
26479;DHT22;14163;-26.142;27.992;2023-07-29T04:09:43;13.20;99.90
26479;DHT22;14163;-26.142;27.992;2023-07-29T04:12:13;14.00;99.90
26479;DHT22;14163;-26.142;27.992;2023-07-29T04:14:42;14.60;99.90
26479;DHT22;14163;-26.142;27.992;2023-07-29T04:17:12;15.10;99.90
26479;DHT22;14163;-26.142;27.992;2023-07-29T04:19:44;15.50;99.90
26479;DHT22;14163;-26.142;27.992;2023-07-29T04:22:15;15.70;99.90
26479;DHT22;14163;-26.142;27.992;2023-07-29T04:24:45;15.90;99.90
26479;DHT22;14163;-26.142;27.992;2023-07-29T04:27:15;16.00;99.90
26479;DHT22;14163;-26.142;27.992;2023-07-29T04:29:44;16.00;99.90
26479;DHT22;14163;-26.142;27.992;2023-07-29T04:32:14;15.90;99.90
26479;DHT22;14163;-26.142;27.992;2023-07-29T04:34:47;15.40;99.90
26479;DHT22;14163;-26.142;27.992;2023-07-29T04:37:17;15.00;99.90
26479;DHT22;14163;-26.142;27.992;2023-07-29T04:39:47;14.90;99.90
26479;DHT22;14163;-26.142;27.992;2023-07-29T04:42:16;14.80;99.90
26479;DHT22;14163;-26.142;27.992;2023-07-29T04:44:46;14.60;99.90
26479;DHT22;14163;-26.142;27.992;2023-07-29T04:47:15;14.60;99.90
26479;DHT22;14163;-26.142;27.992;2023-07-29T04:49:46;14.50;99.90
26479;DHT22;14163;-26.142;27.992;2023-07-29T04:52:16;14.30;99.90
26479;DHT22;14163;-26.142;27.992;2023-07-29T04:54:46;14.20;99.90
26479;DHT22;14163;-26.142;27.992;2023-07-29T04:57:17;14.20;99.90
26479;DHT22;14163;-26.142;27.992;2023-07-29T04:59:47;14.20;99.90
26479;DHT22;14163;-26.142;27.992;2023-07-29T05:02:16;14.20;99.90
26479;DHT22;14163;-26.142;27.992;2023-07-29T05:04:48;14.20;99.90
26479;DHT22;14163;-26.142;27.992;2023-07-29T05:07:18;14.20;99.90
26479;DHT22;14163;-26.142;27.992;2023-07-29T05:09:48;14.10;99.90
26479;DHT22;14163;-26.142;27.992;2023-07-29T05:12:18;14.10;99.90
26479;DHT22;14163;-26.142;27.992;2023-07-29T05:14:48;14.10;99.90
26479;DHT22;14163;-26.142;27.992;2023-07-29T05:17:18;14.30;99.90
26479;DHT22;14163;-26.142;27.992;2023-07-29T05:19:49;14.40;99.90
26479;DHT22;14163;-26.142;27.992;2023-07-29T05:22:19;14.40;99.90
26479;DHT22;14163;-26.142;27.992;2023-07-29T05:24:48;14.40;99.90
26479;DHT22;14163;-26.142;27.992;2023-07-29T05:27:18;14.50;99.90
26479;DHT22;14163;-26.142;27.992;2023-07-29T05:29:48;14.50;99.90
26479;DHT22;14163;-26.142;27.992;2023-07-29T05:32:18;14.50;99.90
26479;DHT22;14163;-26.142;27.992;2023-07-29T05:34:49;14.60;99.90
26479;DHT22;14163;-26.142;27.992;2023-07-29T05:37:18;14.80;99.90
26479;DHT22;14163;-26.142;27.992;2023-07-29T05:39:48;14.90;99.90
26479;DHT22;14163;-26.142;27.992;2023-07-29T05:42:17;14.90;99.90
26479;DHT22;14163;-26.142;27.992;2023-07-29T05:44:46;14.90;99.90
26479;DHT22;14163;-26.142;27.992;2023-07-29T05:47:15;15.00;99.90
26479;DHT22;14163;-26.142;27.992;2023-07-29T05:49:45;15.10;99.90
26479;DHT22;14163;-26.142;27.992;2023-07-29T05:52:16;15.20;99.90
26479;DHT22;14163;-26.142;27.992;2023-07-29T05:54:45;15.20;99.90
26479;DHT22;14163;-26.142;27.992;2023-07-29T05:57:14;15.20;99.90
26479;DHT22;14163;-26.142;27.992;2023-07-29T05:59:44;15.10;99.90
26479;DHT22;14163;-26.142;27.992;2023-07-29T06:02:14;15.20;99.90
26479;DHT22;14163;-26.142;27.992;2023-07-29T06:04:44;15.20;99.90
26479;DHT22;14163;-26.142;27.992;2023-07-29T06:07:16;15.30;99.90
26479;DHT22;14163;-26.142;27.992;2023-07-29T06:09:46;15.50;99.90
26479;DHT22;14163;-26.142;27.992;2023-07-29T06:12:16;15.60;99.90
26479;DHT22;14163;-26.142;27.992;2023-07-29T06:14:46;15.60;99.90
26479;DHT22;14163;-26.142;27.992;2023-07-29T06:17:16;15.70;99.90
26479;DHT22;14163;-26.142;27.992;2023-07-29T06:19:47;15.80;99.90
26479;DHT22;14163;-26.142;27.992;2023-07-29T06:22:20;15.90;99.90
26479;DHT22;14163;-26.142;27.992;2023-07-29T06:24:50;15.90;99.90
26479;DHT22;14163;-26.142;27.992;2023-07-29T06:27:19;15.90;99.90
26479;DHT22;14163;-26.142;27.992;2023-07-29T06:29:49;15.80;99.90
26479;DHT22;14163;-26.142;27.992;2023-07-29T06:32:19;15.80;99.90
26479;DHT22;14163;-26.142;27.992;2023-07-29T06:34:48;15.90;99.90
26479;DHT22;14163;-26.142;27.992;2023-07-29T06:37:20;15.90;99.90
26479;DHT22;14163;-26.142;27.992;2023-07-29T06:39:50;15.90;99.90
26479;DHT22;14163;-26.142;27.992;2023-07-29T06:42:19;15.90;99.90
26479;DHT22;14163;-26.142;27.992;2023-07-29T06:44:49;15.80;99.90
26479;DHT22;14163;-26.142;27.992;2023-07-29T06:47:19;15.80;99.90
26479;DHT22;14163;-26.142;27.992;2023-07-29T06:49:48;16.10;99.90
26479;DHT22;14163;-26.142;27.992;2023-07-29T06:52:19;16.10;99.90
26479;DHT22;14163;-26.142;27.992;2023-07-29T06:54:49;16.20;99.90
26479;DHT22;14163;-26.142;27.992;2023-07-29T06:57:18;16.20;99.90
26479;DHT22;14163;-26.142;27.992;2023-07-29T06:59:48;16.20;99.90
26479;DHT22;14163;-26.142;27.992;2023-07-29T07:02:17;16.40;99.90
26479;DHT22;14163;-26.142;27.992;2023-07-29T07:04:46;16.40;99.90
26479;DHT22;14163;-26.142;27.992;2023-07-29T07:07:15;16.40;99.90
26479;DHT22;14163;-26.142;27.992;2023-07-29T07:09:47;16.40;99.90
26479;DHT22;14163;-26.142;27.992;2023-07-29T07:12:16;16.60;99.90
26479;DHT22;14163;-26.142;27.992;2023-07-29T07:14:46;16.40;99.90
26479;DHT22;14163;-26.142;27.992;2023-07-29T07:17:16;16.50;99.90
26479;DHT22;14163;-26.142;27.992;2023-07-29T07:19:46;16.50;99.90
26479;DHT22;14163;-26.142;27.992;2023-07-29T07:22:15;16.30;99.90
26479;DHT22;14163;-26.142;27.992;2023-07-29T07:24:47;16.40;99.90
26479;DHT22;14163;-26.142;27.992;2023-07-29T07:27:16;16.40;99.90
26479;DHT22;14163;-26.142;27.992;2023-07-29T07:29:46;16.40;99.90
26479;DHT22;14163;-26.142;27.992;2023-07-29T07:32:16;16.40;99.90
26479;DHT22;14163;-26.142;27.992;2023-07-29T07:34:46;16.30;99.90
26479;DHT22;14163;-26.142;27.992;2023-07-29T07:37:16;16.40;99.90
26479;DHT22;14163;-26.142;27.992;2023-07-29T07:39:49;16.50;99.90
26479;DHT22;14163;-26.142;27.992;2023-07-29T07:42:19;16.60;99.90
26479;DHT22;14163;-26.142;27.992;2023-07-29T07:44:49;16.70;99.90
26479;DHT22;14163;-26.142;27.992;2023-07-29T07:47:19;16.90;99.90
26479;DHT22;14163;-26.142;27.992;2023-07-29T07:49:49;17.10;99.90
26479;DHT22;14163;-26.142;27.992;2023-07-29T07:52:18;17.20;99.90
26479;DHT22;14163;-26.142;27.992;2023-07-29T07:54:52;17.40;99.90
26479;DHT22;14163;-26.142;27.992;2023-07-29T07:57:22;17.40;99.90
26479;DHT22;14163;-26.142;27.992;2023-07-29T07:59:52;17.30;99.90
26479;DHT22;14163;-26.142;27.992;2023-07-29T08:02:23;17.40;99.90
26479;DHT22;14163;-26.142;27.992;2023-07-29T08:04:53;17.60;99.90
26479;DHT22;14163;-26.142;27.992;2023-07-29T08:07:23;17.60;99.90
26479;DHT22;14163;-26.142;27.992;2023-07-29T08:09:55;17.70;99.90
26479;DHT22;14163;-26.142;27.992;2023-07-29T08:12:25;17.90;99.90
26479;DHT22;14163;-26.142;27.992;2023-07-29T08:14:54;17.90;99.90
26479;DHT22;14163;-26.142;27.992;2023-07-29T08:17:24;18.00;99.90
26479;DHT22;14163;-26.142;27.992;2023-07-29T08:19:53;18.20;99.90
26479;DHT22;14163;-26.142;27.992;2023-07-29T08:22:22;18.20;99.90
26479;DHT22;14163;-26.142;27.992;2023-07-29T08:24:53;18.20;99.90
26479;DHT22;14163;-26.142;27.992;2023-07-29T08:27:23;18.40;99.90
26479;DHT22;14163;-26.142;27.992;2023-07-29T08:29:54;18.50;99.90
26479;DHT22;14163;-26.142;27.992;2023-07-29T08:32:24;18.70;99.90
26479;DHT22;14163;-26.142;27.992;2023-07-29T08:34:54;18.80;99.90
26479;DHT22;14163;-26.142;27.992;2023-07-29T08:37:23;18.80;99.90
26479;DHT22;14163;-26.142;27.992;2023-07-29T08:39:56;18.70;99.90
26479;DHT22;14163;-26.142;27.992;2023-07-29T08:42:30;18.70;99.90
26479;DHT22;14163;-26.142;27.992;2023-07-29T08:45:05;18.90;99.90
26479;DHT22;14163;-26.142;27.992;2023-07-29T08:47:36;19.10;99.90
26479;DHT22;14163;-26.142;27.992;2023-07-29T08:50:07;19.20;99.90
26479;DHT22;14163;-26.142;27.992;2023-07-29T08:52:38;19.40;99.70
26479;DHT22;14163;-26.142;27.992;2023-07-29T08:55:11;19.50;98.30
26479;DHT22;14163;-26.142;27.992;2023-07-29T08:57:41;19.50;98.40
26479;DHT22;14163;-26.142;27.992;2023-07-29T09:00:12;19.60;98.20
26479;DHT22;14163;-26.142;27.992;2023-07-29T09:02:42;19.90;97.40
26479;DHT22;14163;-26.142;27.992;2023-07-29T09:05:11;20.00;96.50
26479;DHT22;14163;-26.142;27.992;2023-07-29T09:07:42;20.20;96.50
26479;DHT22;14163;-26.142;27.992;2023-07-29T09:10:13;20.40;95.50
26479;DHT22;14163;-26.142;27.992;2023-07-29T09:12:43;20.40;94.40
26479;DHT22;14163;-26.142;27.992;2023-07-29T09:15:13;20.40;94.20
26479;DHT22;14163;-26.142;27.992;2023-07-29T09:17:43;20.40;94.20
26479;DHT22;14163;-26.142;27.992;2023-07-29T09:20:12;20.50;93.70
26479;DHT22;14163;-26.142;27.992;2023-07-29T09:22:44;20.70;93.80
26479;DHT22;14163;-26.142;27.992;2023-07-29T09:25:15;20.90;93.00
26479;DHT22;14163;-26.142;27.992;2023-07-29T09:27:45;21.00;92.80
26479;DHT22;14163;-26.142;27.992;2023-07-29T09:30:16;20.90;92.40
26479;DHT22;14163;-26.142;27.992;2023-07-29T09:32:46;21.20;92.10
26479;DHT22;14163;-26.142;27.992;2023-07-29T09:35:15;21.80;90.80
26479;DHT22;14163;-26.142;27.992;2023-07-29T09:37:45;22.00;90.10
26479;DHT22;14163;-26.142;27.992;2023-07-29T09:40:17;22.00;87.80
26479;DHT22;14163;-26.142;27.992;2023-07-29T09:42:50;21.90;87.80
26479;DHT22;14163;-26.142;27.992;2023-07-29T09:45:21;22.00;87.20
26479;DHT22;14163;-26.142;27.992;2023-07-29T09:47:52;22.20;86.10
26479;DHT22;14163;-26.142;27.992;2023-07-29T09:50:24;22.30;85.70
26479;DHT22;14163;-26.142;27.992;2023-07-29T09:52:54;22.20;84.70
26479;DHT22;14163;-26.142;27.992;2023-07-29T09:55:27;22.30;85.20
26479;DHT22;14163;-26.142;27.992;2023-07-29T09:57:58;22.40;84.20
26479;DHT22;14163;-26.142;27.992;2023-07-29T10:00:29;22.90;83.40
26479;DHT22;14163;-26.142;27.992;2023-07-29T10:02:59;23.20;82.40
26479;DHT22;14163;-26.142;27.992;2023-07-29T12:15:00;22.70;76.80
26479;DHT22;14163;-26.142;27.992;2023-07-29T12:17:30;23.00;75.60
26479;DHT22;14163;-26.142;27.992;2023-07-29T12:20:00;23.60;74.80
26479;DHT22;14163;-26.142;27.992;2023-07-29T12:22:30;24.20;72.90
26479;DHT22;14163;-26.142;27.992;2023-07-29T12:24:59;24.50;72.00
26479;DHT22;14163;-26.142;27.992;2023-07-29T12:27:31;24.80;70.90
26479;DHT22;14163;-26.142;27.992;2023-07-29T12:30:05;25.10;70.80
26479;DHT22;14163;-26.142;27.992;2023-07-29T12:32:44;25.30;69.30
26479;DHT22;14163;-26.142;27.992;2023-07-29T12:35:15;25.50;68.70
26479;DHT22;14163;-26.142;27.992;2023-07-29T12:37:45;25.50;68.00
26479;DHT22;14163;-26.142;27.992;2023-07-29T12:40:24;25.70;67.20
26479;DHT22;14163;-26.142;27.992;2023-07-29T12:42:55;25.80;66.20
26479;DHT22;14163;-26.142;27.992;2023-07-29T12:45:26;25.50;66.50
26479;DHT22;14163;-26.142;27.992;2023-07-29T12:47:56;25.30;66.70
26479;DHT22;14163;-26.142;27.992;2023-07-29T12:50:25;25.20;66.70
26479;DHT22;14163;-26.142;27.992;2023-07-29T12:52:54;25.30;66.30
26479;DHT22;14163;-26.142;27.992;2023-07-29T12:55:25;25.30;66.30
26479;DHT22;14163;-26.142;27.992;2023-07-29T12:57:54;25.20;66.50
26479;DHT22;14163;-26.142;27.992;2023-07-29T13:00:27;25.30;66.50
26479;DHT22;14163;-26.142;27.992;2023-07-29T13:02:57;25.00;66.90
26479;DHT22;14163;-26.142;27.992;2023-07-29T13:05:27;25.10;67.20
26479;DHT22;14163;-26.142;27.992;2023-07-29T13:07:56;25.20;67.20
26479;DHT22;14163;-26.142;27.992;2023-07-29T13:10:26;25.10;66.10
26479;DHT22;14163;-26.142;27.992;2023-07-29T13:12:55;25.10;65.90
26479;DHT22;14163;-26.142;27.992;2023-07-29T13:15:27;24.80;66.10
26479;DHT22;14163;-26.142;27.992;2023-07-29T13:17:56;24.80;66.50
26479;DHT22;14163;-26.142;27.992;2023-07-29T13:20:25;24.80;66.70
26479;DHT22;14163;-26.142;27.992;2023-07-29T13:22:56;24.80;66.10
26479;DHT22;14163;-26.142;27.992;2023-07-29T13:25:25;24.80;66.20
26479;DHT22;14163;-26.142;27.992;2023-07-29T13:27:54;24.90;65.90
26479;DHT22;14163;-26.142;27.992;2023-07-29T13:30:23;24.90;66.20
26479;DHT22;14163;-26.142;27.992;2023-07-29T13:32:54;25.00;66.30
26479;DHT22;14163;-26.142;27.992;2023-07-29T13:35:24;25.10;65.90
26479;DHT22;14163;-26.142;27.992;2023-07-29T13:37:53;25.00;65.60
26479;DHT22;14163;-26.142;27.992;2023-07-29T13:40:23;24.80;65.90
26479;DHT22;14163;-26.142;27.992;2023-07-29T13:42:52;24.90;66.00
26479;DHT22;14163;-26.142;27.992;2023-07-29T13:45:21;25.10;65.30
26479;DHT22;14163;-26.142;27.992;2023-07-29T13:47:51;24.90;65.60
26479;DHT22;14163;-26.142;27.992;2023-07-29T13:50:22;25.10;65.30
26479;DHT22;14163;-26.142;27.992;2023-07-29T13:52:51;25.00;65.30
26479;DHT22;14163;-26.142;27.992;2023-07-29T13:55:22;24.80;65.70
26479;DHT22;14163;-26.142;27.992;2023-07-29T13:57:52;25.10;65.90
26479;DHT22;14163;-26.142;27.992;2023-07-29T14:00:22;25.10;65.00
26479;DHT22;14163;-26.142;27.992;2023-07-29T14:02:52;25.10;65.40
26479;DHT22;14163;-26.142;27.992;2023-07-29T14:05:24;25.30;65.50
26479;DHT22;14163;-26.142;27.992;2023-07-29T14:07:53;25.40;64.90
26479;DHT22;14163;-26.142;27.992;2023-07-29T14:10:22;25.50;65.60
26479;DHT22;14163;-26.142;27.992;2023-07-29T14:12:51;25.40;64.80
26479;DHT22;14163;-26.142;27.992;2023-07-29T14:15:22;25.40;64.40
26479;DHT22;14163;-26.142;27.992;2023-07-29T14:17:52;25.30;64.40
26479;DHT22;14163;-26.142;27.992;2023-07-29T14:20:23;25.00;64.30
26479;DHT22;14163;-26.142;27.992;2023-07-29T14:22:52;24.90;64.00
26479;DHT22;14163;-26.142;27.992;2023-07-29T14:25:22;24.90;63.90
26479;DHT22;14163;-26.142;27.992;2023-07-29T14:27:51;24.80;63.90
26479;DHT22;14163;-26.142;27.992;2023-07-29T14:30:21;24.50;64.10
26479;DHT22;14163;-26.142;27.992;2023-07-29T14:32:50;24.40;64.00
26479;DHT22;14163;-26.142;27.992;2023-07-29T14:35:19;24.40;65.20
26479;DHT22;14163;-26.142;27.992;2023-07-29T14:37:50;24.20;65.80
26479;DHT22;14163;-26.142;27.992;2023-07-29T14:40:20;23.70;65.80
26479;DHT22;14163;-26.142;27.992;2023-07-29T14:42:50;23.50;66.30
26479;DHT22;14163;-26.142;27.992;2023-07-29T14:45:20;23.60;66.90
26479;DHT22;14163;-26.142;27.992;2023-07-29T14:47:50;23.60;68.20
26479;DHT22;14163;-26.142;27.992;2023-07-29T14:50:20;23.40;68.20
26479;DHT22;14163;-26.142;27.992;2023-07-29T14:52:51;23.20;69.00
26479;DHT22;14163;-26.142;27.992;2023-07-29T14:55:20;23.40;68.70
26479;DHT22;14163;-26.142;27.992;2023-07-29T14:57:49;23.50;68.10
26479;DHT22;14163;-26.142;27.992;2023-07-29T15:00:18;23.70;67.90
26479;DHT22;14163;-26.142;27.992;2023-07-29T15:02:48;23.70;68.40
26479;DHT22;14163;-26.142;27.992;2023-07-29T15:05:17;23.60;68.00
26479;DHT22;14163;-26.142;27.992;2023-07-29T15:07:46;23.60;67.60
26479;DHT22;14163;-26.142;27.992;2023-07-29T15:10:19;23.50;68.30
26479;DHT22;14163;-26.142;27.992;2023-07-29T15:12:48;23.50;67.70
26479;DHT22;14163;-26.142;27.992;2023-07-29T15:15:17;23.60;67.30
26479;DHT22;14163;-26.142;27.992;2023-07-29T15:17:46;23.70;67.70
26479;DHT22;14163;-26.142;27.992;2023-07-29T15:20:15;23.70;66.80
26479;DHT22;14163;-26.142;27.992;2023-07-29T15:22:45;23.50;67.00
26479;DHT22;14163;-26.142;27.992;2023-07-29T15:25:14;23.10;67.30
26479;DHT22;14163;-26.142;27.992;2023-07-29T15:27:45;23.20;68.10
26479;DHT22;14163;-26.142;27.992;2023-07-29T15:30:14;23.10;67.80
26479;DHT22;14163;-26.142;27.992;2023-07-29T15:32:43;23.10;68.40
26479;DHT22;14163;-26.142;27.992;2023-07-29T15:35:13;23.10;68.30
26479;DHT22;14163;-26.142;27.992;2023-07-29T15:37:42;23.20;67.90
26479;DHT22;14163;-26.142;27.992;2023-07-29T15:40:13;23.10;68.30
26479;DHT22;14163;-26.142;27.992;2023-07-29T15:42:44;23.10;68.70
26479;DHT22;14163;-26.142;27.992;2023-07-29T15:45:13;23.20;68.00
26479;DHT22;14163;-26.142;27.992;2023-07-29T15:47:43;23.10;67.90
26479;DHT22;14163;-26.142;27.992;2023-07-29T15:50:12;23.00;68.40
26479;DHT22;14163;-26.142;27.992;2023-07-29T15:52:42;23.10;68.30
26479;DHT22;14163;-26.142;27.992;2023-07-29T15:55:11;23.30;68.20
26479;DHT22;14163;-26.142;27.992;2023-07-29T15:57:40;23.40;68.10
26479;DHT22;14163;-26.142;27.992;2023-07-29T16:00:12;23.50;67.90
26479;DHT22;14163;-26.142;27.992;2023-07-29T16:02:42;23.60;67.70
26479;DHT22;14163;-26.142;27.992;2023-07-29T16:05:11;23.70;67.50
26479;DHT22;14163;-26.142;27.992;2023-07-29T16:07:40;23.80;67.60
26479;DHT22;14163;-26.142;27.992;2023-07-29T16:10:10;23.70;67.40
26479;DHT22;14163;-26.142;27.992;2023-07-29T16:12:39;23.60;67.40
26479;DHT22;14163;-26.142;27.992;2023-07-29T16:15:11;23.60;67.60
26479;DHT22;14163;-26.142;27.992;2023-07-29T16:17:40;23.60;67.70
26479;DHT22;14163;-26.142;27.992;2023-07-29T16:20:10;23.60;67.30
26479;DHT22;14163;-26.142;27.992;2023-07-29T16:22:40;23.50;67.40
26479;DHT22;14163;-26.142;27.992;2023-07-29T16:25:09;23.40;67.80
26479;DHT22;14163;-26.142;27.992;2023-07-29T16:27:38;23.30;68.20
26479;DHT22;14163;-26.142;27.992;2023-07-29T16:30:08;23.30;67.90
26479;DHT22;14163;-26.142;27.992;2023-07-29T16:32:39;23.50;67.70
26479;DHT22;14163;-26.142;27.992;2023-07-29T16:35:09;23.70;67.60
26479;DHT22;14163;-26.142;27.992;2023-07-29T16:37:39;23.70;67.80
26479;DHT22;14163;-26.142;27.992;2023-07-29T16:40:09;23.60;67.70
26479;DHT22;14163;-26.142;27.992;2023-07-29T16:42:39;23.30;67.70
26479;DHT22;14163;-26.142;27.992;2023-07-29T16:45:09;23.10;68.20
26479;DHT22;14163;-26.142;27.992;2023-07-29T16:47:40;23.00;68.40
26479;DHT22;14163;-26.142;27.992;2023-07-29T16:50:10;23.20;68.40
26479;DHT22;14163;-26.142;27.992;2023-07-29T16:52:39;23.30;68.20
26479;DHT22;14163;-26.142;27.992;2023-07-29T16:55:09;23.20;68.30
26479;DHT22;14163;-26.142;27.992;2023-07-29T16:57:39;23.00;68.40
26479;DHT22;14163;-26.142;27.992;2023-07-29T17:00:12;22.90;68.70
26479;DHT22;14163;-26.142;27.992;2023-07-29T17:02:43;22.90;68.80
26479;DHT22;14163;-26.142;27.992;2023-07-29T17:05:13;23.00;68.80
26479;DHT22;14163;-26.142;27.992;2023-07-29T17:07:42;23.00;68.70
26479;DHT22;14163;-26.142;27.992;2023-07-29T17:10:11;23.00;68.50
26479;DHT22;14163;-26.142;27.992;2023-07-29T17:12:40;23.10;68.30
26479;DHT22;14163;-26.142;27.992;2023-07-29T17:15:10;23.20;68.40
26479;DHT22;14163;-26.142;27.992;2023-07-29T17:17:40;23.20;67.90
26479;DHT22;14163;-26.142;27.992;2023-07-29T17:20:11;23.10;68.70
26479;DHT22;14163;-26.142;27.992;2023-07-29T17:22:41;23.30;68.20
26479;DHT22;14163;-26.142;27.992;2023-07-29T17:25:10;23.30;67.80
26479;DHT22;14163;-26.142;27.992;2023-07-29T17:27:39;23.30;68.00
26479;DHT22;14163;-26.142;27.992;2023-07-29T17:30:10;23.30;68.00
26479;DHT22;14163;-26.142;27.992;2023-07-29T17:32:39;23.30;67.90
26479;DHT22;14163;-26.142;27.992;2023-07-29T17:35:10;23.40;67.80
26479;DHT22;14163;-26.142;27.992;2023-07-29T17:37:40;23.40;68.10
26479;DHT22;14163;-26.142;27.992;2023-07-29T17:40:10;23.30;68.30
26479;DHT22;14163;-26.142;27.992;2023-07-29T17:42:40;23.30;68.40
26479;DHT22;14163;-26.142;27.992;2023-07-29T17:45:09;23.30;69.00
26479;DHT22;14163;-26.142;27.992;2023-07-29T17:47:39;23.40;69.00
26479;DHT22;14163;-26.142;27.992;2023-07-29T17:50:10;23.40;68.80
26479;DHT22;14163;-26.142;27.992;2023-07-29T17:52:39;23.30;68.90
26479;DHT22;14163;-26.142;27.992;2023-07-29T17:55:08;23.40;68.80
26479;DHT22;14163;-26.142;27.992;2023-07-29T17:57:38;23.30;71.20
26479;DHT22;14163;-26.142;27.992;2023-07-29T18:00:08;23.10;68.80
26479;DHT22;14163;-26.142;27.992;2023-07-29T20:05:29;14.70;52.80
26479;DHT22;14163;-26.142;27.992;2023-07-29T20:07:59;14.80;53.10
26479;DHT22;14163;-26.142;27.992;2023-07-29T20:10:29;15.40;52.50
26479;DHT22;14163;-26.142;27.992;2023-07-29T20:12:58;16.10;51.70
26479;DHT22;14163;-26.142;27.992;2023-07-29T20:15:27;16.60;51.20
26479;DHT22;14163;-26.142;27.992;2023-07-29T20:17:56;17.10;50.90
26479;DHT22;14163;-26.142;27.992;2023-07-29T20:20:26;17.50;50.00
26479;DHT22;14163;-26.142;27.992;2023-07-29T20:22:57;17.70;49.80
26479;DHT22;14163;-26.142;27.992;2023-07-29T20:25:26;17.80;49.50
26479;DHT22;14163;-26.142;27.992;2023-07-29T20:27:56;17.80;49.90
26479;DHT22;14163;-26.142;27.992;2023-07-29T20:30:25;17.80;50.00
26479;DHT22;14163;-26.142;27.992;2023-07-29T20:32:57;17.80;49.80
26479;DHT22;14163;-26.142;27.992;2023-07-29T20:35:26;17.90;50.50
26479;DHT22;14163;-26.142;27.992;2023-07-29T20:37:58;17.80;51.10
26479;DHT22;14163;-26.142;27.992;2023-07-29T20:40:27;17.60;53.30
26479;DHT22;14163;-26.142;27.992;2023-07-29T20:42:57;17.40;54.60
26479;DHT22;14163;-26.142;27.992;2023-07-29T20:45:26;17.30;55.20
26479;DHT22;14163;-26.142;27.992;2023-07-29T20:47:55;17.10;56.60
26479;DHT22;14163;-26.142;27.992;2023-07-29T20:50:24;16.90;56.80
26479;DHT22;14163;-26.142;27.992;2023-07-29T20:52:54;16.90;56.80
26479;DHT22;14163;-26.142;27.992;2023-07-29T20:55:25;17.00;56.80
26479;DHT22;14163;-26.142;27.992;2023-07-29T20:57:54;17.00;56.90
26479;DHT22;14163;-26.142;27.992;2023-07-29T21:00:23;17.00;56.00
26479;DHT22;14163;-26.142;27.992;2023-07-29T21:02:53;16.80;55.90
26479;DHT22;14163;-26.142;27.992;2023-07-29T21:05:22;16.80;55.80
26479;DHT22;14163;-26.142;27.992;2023-07-29T21:07:51;16.80;56.00
26479;DHT22;14163;-26.142;27.992;2023-07-29T21:10:20;16.90;56.20
26479;DHT22;14163;-26.142;27.992;2023-07-29T21:12:51;17.00;57.60
26479;DHT22;14163;-26.142;27.992;2023-07-29T21:15:21;17.00;58.30
26479;DHT22;14163;-26.142;27.992;2023-07-29T21:17:50;16.90;59.20
26479;DHT22;14163;-26.142;27.992;2023-07-29T21:20:19;16.90;59.20
26479;DHT22;14163;-26.142;27.992;2023-07-29T21:22:48;16.90;59.60
26479;DHT22;14163;-26.142;27.992;2023-07-29T21:25:18;16.90;59.60
26479;DHT22;14163;-26.142;27.992;2023-07-29T21:27:47;17.00;59.90
26479;DHT22;14163;-26.142;27.992;2023-07-29T21:30:18;17.00;60.20
26479;DHT22;14163;-26.142;27.992;2023-07-29T21:32:48;17.00;60.30
26479;DHT22;14163;-26.142;27.992;2023-07-29T21:35:17;16.90;60.90